createdAt,value
2023-02-08T00:08:23.893Z,-2.94
2023-02-08T00:29:10.690Z,-2.95
2023-02-08T00:33:40.083Z,-2.99
2023-02-08T00:38:09.410Z,-3.03
2023-02-08T00:42:38.814Z,-3.08
2023-02-08T01:08:25.723Z,-3.20
2023-02-08T01:12:55.793Z,-3.25
2023-02-08T01:17:26.298Z,-3.25
2023-02-08T01:47:21.927Z,-3.20
2023-02-08T01:51:54.473Z,-3.20
2023-02-08T01:56:07.386Z,-3.20
2023-02-08T02:00:42.145Z,-3.20
2023-02-08T02:05:12.119Z,-3.19
2023-02-08T02:09:34.160Z,-3.18
2023-02-08T02:14:04.190Z,-3.16
2023-02-08T02:18:26.724Z,-3.16
2023-02-08T02:22:59.508Z,-3.14
2023-02-08T02:27:31.137Z,-3.14
2023-02-08T02:32:08.212Z,-3.14
2023-02-08T02:36:48.438Z,-3.13
2023-02-08T02:41:24.700Z,-3.14
2023-02-08T03:12:06.907Z,-3.05
2023-02-08T03:16:57.712Z,-3.02
2023-02-08T03:21:38.878Z,-2.96
2023-02-08T03:26:09.322Z,-2.93
2023-02-08T03:47:35.172Z,-2.67
2023-02-08T03:51:47.476Z,-2.65
2023-02-08T03:56:09.964Z,-2.64
2023-02-08T04:19:00.017Z,-2.51
2023-02-08T04:23:23.374Z,-2.51
2023-02-08T04:27:52.776Z,-2.53
2023-02-08T04:32:16.342Z,-2.53
2023-02-08T04:36:46.718Z,-2.52
2023-02-08T05:03:54.740Z,-2.52
2023-02-08T05:08:06.770Z,-2.56
2023-02-08T05:12:23.782Z,-2.60
2023-02-08T05:16:44.566Z,-2.63
2023-02-08T05:20:59.045Z,-2.63
2023-02-08T05:25:19.131Z,-2.63
2023-02-08T06:03:34.102Z,-2.80
2023-02-08T06:07:45.879Z,-2.81
2023-02-08T06:12:07.533Z,-2.84
2023-02-08T06:16:35.126Z,-2.84
2023-02-08T06:20:57.730Z,-2.84
2023-02-08T06:25:06.188Z,-2.84
2023-02-08T07:23:45.899Z,-2.38
2023-02-08T07:28:14.885Z,-2.33
2023-02-08T07:32:26.610Z,-2.26
2023-02-08T07:36:55.830Z,-2.23
2023-02-08T07:41:26.214Z,-2.15
2023-02-08T07:45:45.543Z,-2.08
2023-02-08T07:49:41.517Z,-2.01
2023-02-08T07:53:35.275Z,-1.96
2023-02-08T07:57:29.132Z,-1.88
2023-02-08T08:00:58.281Z,-1.84
2023-02-08T08:05:07.011Z,-1.75
2023-02-08T08:08:53.569Z,-1.66
2023-02-08T08:12:52.329Z,-1.59
2023-02-08T08:16:43.893Z,-1.49
2023-02-08T08:20:52.607Z,-1.38
2023-02-08T08:24:56.958Z,-1.26
2023-02-08T08:28:34.313Z,-1.15
2023-02-08T08:32:38.546Z,-1.03
2023-02-08T08:36:47.988Z,-0.93
2023-02-08T08:40:49.292Z,-0.80
2023-02-08T08:44:36.730Z,-0.71
2023-02-08T08:48:44.486Z,-0.60
2023-02-08T08:52:46.860Z,-0.50
2023-02-08T08:56:54.356Z,-0.39
2023-02-08T09:00:59.488Z,-0.34
2023-02-08T09:04:58.575Z,-0.22
2023-02-08T09:08:57.148Z,-0.12
2023-02-08T09:13:01.328Z,0.01
2023-02-08T09:17:00.610Z,0.09
2023-02-08T09:21:01.399Z,0.20
2023-02-08T09:24:46.260Z,0.30
2023-02-08T09:28:44.766Z,0.38
2023-02-08T09:32:21.503Z,0.45
2023-02-08T09:36:04.891Z,0.56
2023-02-08T09:56:11.137Z,0.85
2023-02-08T10:41:13.667Z,1.91
2023-02-08T10:57:22.856Z,1.89
2023-02-08T11:01:11.982Z,1.83
2023-02-08T11:04:19.500Z,1.93
2023-02-08T11:06:59.533Z,2.08
2023-02-08T11:10:56.829Z,2.24
2023-02-08T11:14:48.583Z,2.28
2023-02-08T11:18:19.176Z,2.41
2023-02-08T11:21:33.805Z,2.50
2023-02-08T11:25:05.361Z,2.45
2023-02-08T11:27:51.820Z,2.43
2023-02-08T11:31:03.974Z,2.41
2023-02-08T11:34:53.089Z,2.46
2023-02-08T11:38:20.087Z,2.47
2023-02-08T11:41:59.429Z,2.47
2023-02-08T11:46:08.254Z,2.48
2023-02-08T11:50:19.772Z,2.53
2023-02-08T11:54:29.466Z,2.57
2023-02-08T11:58:38.368Z,2.65
2023-02-08T12:02:40.967Z,2.76
2023-02-08T12:06:47.008Z,2.82
2023-02-08T12:10:47.741Z,2.89
2023-02-08T12:15:02.541Z,2.87
2023-02-08T12:18:58.506Z,2.89
2023-02-08T12:22:40.086Z,2.79
2023-02-08T12:26:52.951Z,2.81
2023-02-08T12:31:05.166Z,2.85
2023-02-08T12:35:33.125Z,2.89
2023-02-08T12:39:52.931Z,2.96
2023-02-08T12:44:06.860Z,3.02
2023-02-08T12:48:23.813Z,3.06
2023-02-08T12:52:55.152Z,3.14
2023-02-08T12:56:53.551Z,3.16
2023-02-08T13:04:19.865Z,3.27
2023-02-08T13:08:13.941Z,3.44
2023-02-08T13:11:53.085Z,3.52
2023-02-08T13:15:53.468Z,3.55
2023-02-08T13:43:41.848Z,3.68
2023-02-08T13:47:43.108Z,3.65
2023-02-08T13:52:00.849Z,3.64
2023-02-08T13:56:09.713Z,3.66
2023-02-08T13:59:51.660Z,3.68
2023-02-08T14:03:17.697Z,3.70
2023-02-08T14:49:07.396Z,2.80
2023-02-08T14:53:15.846Z,2.63
2023-02-08T14:57:13.876Z,2.54
2023-02-08T15:01:25.610Z,2.42
2023-02-08T15:05:10.323Z,2.34
2023-02-08T15:09:15.059Z,2.24
2023-02-08T15:13:05.800Z,2.14
2023-02-08T15:17:03.103Z,2.04
2023-02-08T15:20:53.902Z,1.93
2023-02-08T15:24:33.095Z,1.82
2023-02-08T15:28:09.867Z,1.72
2023-02-08T15:32:04.336Z,1.62
2023-02-08T15:35:18.627Z,1.53
2023-02-08T15:38:45.082Z,1.46
2023-02-08T15:42:21.054Z,1.38
2023-02-08T15:45:43.487Z,1.31
2023-02-08T15:49:17.761Z,1.26
2023-02-08T15:52:59.482Z,1.20
2023-02-08T15:57:11.314Z,1.13
2023-02-08T16:01:20.082Z,1.05
2023-02-08T16:05:31.632Z,0.94
2023-02-08T16:09:40.828Z,0.82
2023-02-08T16:13:55.880Z,0.70
2023-02-08T16:18:13.978Z,0.56
2023-02-08T16:22:24.700Z,0.42
2023-02-08T16:26:31.649Z,0.28
2023-02-08T16:30:46.170Z,0.14
2023-02-08T16:39:04.484Z,-0.09
2023-02-08T16:43:18.316Z,-0.19
2023-02-08T16:47:29.453Z,-0.29
2023-02-08T16:55:48.557Z,-0.48
2023-02-08T17:31:39.502Z,-1.18
2023-02-08T17:35:49.853Z,-1.25
2023-02-08T17:39:58.680Z,-1.28
2023-02-08T17:44:08.742Z,-1.32
2023-02-08T17:48:17.109Z,-1.34
2023-02-08T17:56:06.351Z,-1.43
2023-02-08T18:23:38.259Z,-1.59
2023-02-08T18:27:46.207Z,-1.60
2023-02-08T18:31:46.808Z,-1.59
2023-02-08T18:35:46.847Z,-1.57
2023-02-08T18:39:39.160Z,-1.55
2023-02-08T18:43:53.911Z,-1.52
2023-02-08T19:11:57.618Z,-1.00
2023-02-08T19:16:00.639Z,-0.97
2023-02-08T19:20:10.100Z,-0.93
2023-02-08T19:24:19.906Z,-0.89
2023-02-08T19:45:23.791Z,-0.73
2023-02-08T19:49:32.710Z,-0.74
2023-02-08T19:53:42.235Z,-0.73
2023-02-08T19:57:31.676Z,-0.72
2023-02-08T20:05:47.785Z,-0.72
2023-02-08T20:27:06.528Z,-0.72
2023-02-08T20:31:08.285Z,-0.77
2023-02-08T20:35:16.847Z,-0.79
2023-02-08T20:42:49.528Z,-0.81
2023-02-08T20:46:48.531Z,-0.83
2023-02-08T20:50:55.884Z,-0.83
2023-02-08T20:54:56.152Z,-0.85
2023-02-08T20:58:55.723Z,-0.87
2023-02-08T21:23:09.001Z,-0.97
2023-02-08T21:26:57.937Z,-1.02
2023-02-08T21:31:06.909Z,-1.03
2023-02-08T21:35:08.241Z,-1.04
2023-02-08T21:39:17.111Z,-1.07
2023-02-08T21:59:06.405Z,-1.13
2023-02-08T22:03:09.486Z,-1.18
2023-02-08T22:07:18.302Z,-1.21
2023-02-08T22:11:27.204Z,-1.23
2023-02-08T22:19:44.284Z,-1.24
2023-02-08T22:43:30.405Z,-1.34
2023-02-08T22:47:39.341Z,-1.37
2023-02-08T22:51:49.795Z,-1.36
2023-02-08T22:55:50.238Z,-1.37
2023-02-08T23:23:21.717Z,-1.38
2023-02-08T23:27:20.528Z,-1.42
2023-02-08T23:31:28.419Z,-1.41
2023-02-08T23:35:37.290Z,-1.43
2023-02-08T23:43:13.078Z,-1.46
2023-02-08T23:47:09.453Z,-1.50
2023-02-08T23:51:17.892Z,-1.51
2023-02-08T23:54:55.292Z,-1.54
